WZZ148 UKLL-UKBB
Flight info
| Callsign | WZZ148 |
|---|---|
| Flight time | 0h 54m |
| Altitude | 37000 |
| Route | ADBAN N983 SORON M986 SLV |
| Aircraft | A320/M-SDE3FGHIRWY/LB1 |
Departure
| Time | 2026-05-05 11:01 |
|---|---|
| Airport | Lviv International Airport (UKLL) |
Arrival
| Time | 2026-05-05 11:55 |
|---|---|
| Airport | Boryspil International Airport (UKBB) |
| Time | Latitude | Longitude | Altitude | Speed | Heading |
|---|---|---|---|---|---|
| 2026-05-05 10:49 | 49.81320 | 23.95837 | 1066 ft | 0 kts | 45° |
| 2026-05-05 10:50 | 49.81312 | 23.95825 | 1072 ft | 3 kts | 44° |
| 2026-05-05 10:51 | 49.81298 | 23.95802 | 1070 ft | 3 kts | 46° |
| 2026-05-05 10:51 | 49.81285 | 23.95780 | 1065 ft | 3 kts | 50° |
| 2026-05-05 10:51 | 49.81275 | 23.95759 | 1067 ft | 2 kts | 67° |
| 2026-05-05 10:51 | 49.81272 | 23.95741 | 1070 ft | 2 kts | 103° |
| 2026-05-05 10:52 | 49.81275 | 23.95727 | 1068 ft | 1 kts | 120° |
| 2026-05-05 10:52 | 49.81279 | 23.95716 | 1066 ft | 1 kts | 123° |
| 2026-05-05 10:52 | 49.81280 | 23.95714 | 1066 ft | 0 kts | 123° |
| 2026-05-05 10:54 | 49.81279 | 23.95716 | 1066 ft | 1 kts | 123° |
| 2026-05-05 10:54 | 49.81271 | 23.95733 | 1067 ft | 3 kts | 130° |
| 2026-05-05 10:54 | 49.81252 | 23.95763 | 1066 ft | 5 kts | 134° |
| 2026-05-05 10:55 | 49.81224 | 23.95806 | 1066 ft | 7 kts | 136° |
| 2026-05-05 10:55 | 49.81185 | 23.95864 | 1066 ft | 9 kts | 136° |
| 2026-05-05 10:55 | 49.81138 | 23.95935 | 1066 ft | 11 kts | 136° |
| 2026-05-05 10:55 | 49.81085 | 23.96013 | 1066 ft | 9 kts | 141° |
| 2026-05-05 10:56 | 49.81022 | 23.96034 | 1066 ft | 10 kts | 180° |
| 2026-05-05 10:56 | 49.80941 | 23.96033 | 1065 ft | 13 kts | 180° |
| 2026-05-05 10:56 | 49.80842 | 23.96046 | 1064 ft | 16 kts | 153° |
| 2026-05-05 10:56 | 49.80759 | 23.96162 | 1066 ft | 17 kts | 136° |
| 2026-05-05 10:57 | 49.80671 | 23.96294 | 1065 ft | 19 kts | 136° |
| 2026-05-05 10:57 | 49.80575 | 23.96438 | 1066 ft | 20 kts | 135° |
| 2026-05-05 10:57 | 49.80466 | 23.96601 | 1064 ft | 23 kts | 136° |
| 2026-05-05 10:57 | 49.80345 | 23.96781 | 1063 ft | 25 kts | 136° |
| 2026-05-05 10:58 | 49.80216 | 23.96976 | 1064 ft | 27 kts | 136° |
| 2026-05-05 10:58 | 49.80081 | 23.97177 | 1066 ft | 27 kts | 136° |
| 2026-05-05 10:58 | 49.79998 | 23.97307 | 1065 ft | 11 kts | 118° |
| 2026-05-05 10:58 | 49.79979 | 23.97418 | 1068 ft | 11 kts | 132° |
| 2026-05-05 10:59 | 49.79922 | 23.97430 | 1067 ft | 6 kts | 232° |
| 2026-05-05 10:59 | 49.79937 | 23.97383 | 1064 ft | 5 kts | 332° |
| 2026-05-05 10:59 | 49.79960 | 23.97357 | 1064 ft | 0 kts | 316° |
| 2026-05-05 10:59 | 49.79963 | 23.97353 | 1064 ft | 3 kts | 316° |
| 2026-05-05 11:00 | 49.80115 | 23.97124 | 1066 ft | 63 kts | 316° |
| 2026-05-05 11:00 | 49.80577 | 23.96430 | 1066 ft | 119 kts | 315° |
| 2026-05-05 11:00 | 49.81278 | 23.95360 | 1099 ft | 159 kts | 313° |
| 2026-05-05 11:00 | 49.82082 | 23.94186 | 1605 ft | 158 kts | 310° |
| 2026-05-05 11:01 | 49.82904 | 23.93014 | 2235 ft | 164 kts | 313° |
| 2026-05-05 11:01 | 49.83788 | 23.91808 | 2717 ft | 177 kts | 313° |
| 2026-05-05 11:01 | 49.84744 | 23.90458 | 3243 ft | 194 kts | 313° |
| 2026-05-05 11:01 | 49.85780 | 23.88985 | 3671 ft | 212 kts | 314° |
| 2026-05-05 11:02 | 49.86937 | 23.87337 | 4087 ft | 239 kts | 314° |
| 2026-05-05 11:02 | 49.88224 | 23.85526 | 4607 ft | 260 kts | 314° |
| 2026-05-05 11:02 | 49.89622 | 23.83596 | 5284 ft | 278 kts | 318° |
| 2026-05-05 11:02 | 49.91415 | 23.82270 | 5959 ft | 300 kts | 347° |
| 2026-05-05 11:03 | 49.93532 | 23.82560 | 6704 ft | 314 kts | 19° |
| 2026-05-05 11:03 | 49.95286 | 23.84468 | 7846 ft | 305 kts | 46° |
| 2026-05-05 11:03 | 49.96599 | 23.87048 | 8829 ft | 306 kts | 54° |
| 2026-05-05 11:03 | 49.97790 | 23.89831 | 9593 ft | 311 kts | 64° |
| 2026-05-05 11:04 | 49.98281 | 23.93037 | 10304 ft | 312 kts | 91° |
| 2026-05-05 11:04 | 49.98019 | 23.96442 | 10869 ft | 319 kts | 109° |
| 2026-05-05 11:04 | 49.97065 | 23.99530 | 11273 ft | 329 kts | 126° |
| 2026-05-05 11:04 | 49.95892 | 24.02686 | 11627 ft | 347 kts | 116° |
| 2026-05-05 11:05 | 49.95164 | 24.06364 | 11970 ft | 366 kts | 104° |
| 2026-05-05 11:05 | 49.94626 | 24.10297 | 12426 ft | 377 kts | 102° |
| 2026-05-05 11:05 | 49.94152 | 24.14328 | 13131 ft | 381 kts | 101° |
| 2026-05-05 11:05 | 49.93718 | 24.18405 | 13830 ft | 384 kts | 99° |
| 2026-05-05 11:06 | 49.93301 | 24.22505 | 14439 ft | 386 kts | 100° |
| 2026-05-05 11:06 | 49.92677 | 24.26570 | 15037 ft | 388 kts | 107° |
| 2026-05-05 11:06 | 49.91934 | 24.30620 | 15622 ft | 391 kts | 107° |
| 2026-05-05 11:06 | 49.91167 | 24.34684 | 16202 ft | 394 kts | 107° |
| 2026-05-05 11:07 | 49.90383 | 24.38775 | 16799 ft | 397 kts | 107° |
| 2026-05-05 11:07 | 49.89591 | 24.42890 | 17397 ft | 400 kts | 108° |
| 2026-05-05 11:07 | 49.88792 | 24.47031 | 18011 ft | 403 kts | 108° |
| 2026-05-05 11:07 | 49.87985 | 24.51211 | 18582 ft | 406 kts | 108° |
| 2026-05-05 11:08 | 49.87172 | 24.55424 | 19141 ft | 409 kts | 107° |
| 2026-05-05 11:08 | 49.86358 | 24.59646 | 19699 ft | 412 kts | 107° |
| 2026-05-05 11:08 | 49.85531 | 24.63929 | 20262 ft | 415 kts | 107° |
| 2026-05-05 11:08 | 49.84696 | 24.68236 | 20799 ft | 418 kts | 107° |
| 2026-05-05 11:09 | 49.84140 | 24.71102 | 21137 ft | 420 kts | 107° |
| 2026-05-05 11:09 | 49.83020 | 24.76856 | 21781 ft | 423 kts | 107° |
| 2026-05-05 11:09 | 49.82163 | 24.81228 | 22275 ft | 425 kts | 107° |
| 2026-05-05 11:09 | 49.81300 | 24.85632 | 22768 ft | 428 kts | 107° |
| 2026-05-05 11:10 | 49.80606 | 24.90119 | 23238 ft | 430 kts | 98° |
| 2026-05-05 11:10 | 49.80397 | 24.93172 | 23541 ft | 431 kts | 92° |
| 2026-05-05 11:10 | 49.80372 | 24.97818 | 23919 ft | 433 kts | 89° |
| 2026-05-05 11:10 | 49.80370 | 25.02495 | 24291 ft | 435 kts | 89° |
| 2026-05-05 11:11 | 49.80363 | 25.07174 | 24663 ft | 436 kts | 89° |
| 2026-05-05 11:11 | 49.80349 | 25.11875 | 25032 ft | 438 kts | 90° |
| 2026-05-05 11:11 | 49.80331 | 25.16622 | 25384 ft | 440 kts | 90° |
| 2026-05-05 11:11 | 49.80312 | 25.21366 | 25723 ft | 442 kts | 90° |
| 2026-05-05 11:12 | 49.80289 | 25.26143 | 26075 ft | 444 kts | 89° |
| 2026-05-05 11:12 | 49.80264 | 25.30939 | 26424 ft | 446 kts | 89° |
| 2026-05-05 11:12 | 49.80237 | 25.35740 | 26782 ft | 448 kts | 89° |
| 2026-05-05 11:12 | 49.80211 | 25.40569 | 27128 ft | 450 kts | 89° |
| 2026-05-05 11:13 | 49.80183 | 25.45415 | 27453 ft | 452 kts | 89° |
| 2026-05-05 11:13 | 49.80152 | 25.50289 | 27792 ft | 454 kts | 89° |
| 2026-05-05 11:13 | 49.80119 | 25.55177 | 28124 ft | 455 kts | 89° |
| 2026-05-05 11:13 | 49.80085 | 25.60080 | 28576 ft | 454 kts | 89° |
| 2026-05-05 11:14 | 49.80047 | 25.64888 | 29062 ft | 452 kts | 89° |
| 2026-05-05 11:14 | 49.80009 | 25.69806 | 29550 ft | 450 kts | 89° |
| 2026-05-05 11:14 | 49.79969 | 25.74583 | 30019 ft | 449 kts | 89° |
| 2026-05-05 11:14 | 49.79925 | 25.79461 | 30431 ft | 448 kts | 89° |
| 2026-05-05 11:15 | 49.79880 | 25.84217 | 30830 ft | 446 kts | 89° |
| 2026-05-05 11:15 | 49.79830 | 25.89020 | 31256 ft | 445 kts | 89° |
| 2026-05-05 11:15 | 49.79782 | 25.93810 | 31677 ft | 444 kts | 89° |
| 2026-05-05 11:15 | 49.79734 | 25.98575 | 32100 ft | 443 kts | 89° |
| 2026-05-05 11:16 | 49.79681 | 26.03332 | 32514 ft | 442 kts | 89° |
| 2026-05-05 11:16 | 49.79623 | 26.08091 | 32916 ft | 441 kts | 89° |
| 2026-05-05 11:16 | 49.79561 | 26.12828 | 33334 ft | 440 kts | 90° |
| 2026-05-05 11:16 | 49.79497 | 26.17559 | 33755 ft | 439 kts | 90° |
| 2026-05-05 11:17 | 49.79432 | 26.22270 | 34141 ft | 438 kts | 89° |
| 2026-05-05 11:17 | 49.79372 | 26.26981 | 34463 ft | 437 kts | 89° |
| 2026-05-05 11:17 | 49.79311 | 26.31684 | 34769 ft | 437 kts | 90° |
| 2026-05-05 11:17 | 49.79246 | 26.36383 | 35061 ft | 436 kts | 90° |
| 2026-05-05 11:18 | 49.79179 | 26.41078 | 35362 ft | 436 kts | 90° |
| 2026-05-05 11:18 | 49.79112 | 26.45769 | 35617 ft | 436 kts | 90° |
| 2026-05-05 11:18 | 49.79041 | 26.50464 | 35883 ft | 436 kts | 90° |
| 2026-05-05 11:18 | 49.78964 | 26.55156 | 36132 ft | 436 kts | 90° |
| 2026-05-05 11:19 | 49.78885 | 26.59854 | 36388 ft | 436 kts | 90° |
| 2026-05-05 11:19 | 49.78805 | 26.64540 | 36645 ft | 436 kts | 90° |
| 2026-05-05 11:19 | 49.78723 | 26.69224 | 36874 ft | 436 kts | 90° |
| 2026-05-05 11:20 | 49.78562 | 26.78676 | 36965 ft | 444 kts | 90° |
| 2026-05-05 11:20 | 49.78399 | 26.88262 | 36956 ft | 446 kts | 91° |
| 2026-05-05 11:21 | 49.78214 | 26.97776 | 36946 ft | 445 kts | 91° |
| 2026-05-05 11:21 | 49.78015 | 27.07360 | 36963 ft | 445 kts | 91° |
| 2026-05-05 11:22 | 49.77811 | 27.16936 | 36964 ft | 446 kts | 91° |
| 2026-05-05 11:22 | 49.77606 | 27.26507 | 36966 ft | 445 kts | 91° |
| 2026-05-05 11:23 | 49.77400 | 27.35904 | 36963 ft | 444 kts | 91° |
| 2026-05-05 11:23 | 49.77170 | 27.45467 | 36975 ft | 444 kts | 91° |
| 2026-05-05 11:24 | 49.76939 | 27.55001 | 36975 ft | 444 kts | 91° |
| 2026-05-05 11:24 | 49.76709 | 27.64547 | 36975 ft | 444 kts | 91° |
| 2026-05-05 11:25 | 49.76463 | 27.74094 | 36976 ft | 444 kts | 91° |
| 2026-05-05 11:25 | 49.76486 | 27.83610 | 36973 ft | 441 kts | 81° |
| 2026-05-05 11:26 | 49.78129 | 27.92636 | 36953 ft | 440 kts | 67° |
| 2026-05-05 11:26 | 49.80403 | 28.01432 | 36957 ft | 440 kts | 67° |
| 2026-05-05 11:27 | 49.82658 | 28.10239 | 36966 ft | 440 kts | 67° |
| 2026-05-05 11:27 | 49.84901 | 28.19067 | 36959 ft | 440 kts | 68° |
| 2026-05-05 11:28 | 49.87137 | 28.27891 | 36959 ft | 440 kts | 68° |
| 2026-05-05 11:28 | 49.89367 | 28.36718 | 36956 ft | 440 kts | 68° |
| 2026-05-05 11:29 | 49.91588 | 28.45515 | 36959 ft | 440 kts | 68° |
| 2026-05-05 11:29 | 49.93807 | 28.54367 | 36956 ft | 440 kts | 68° |
| 2026-05-05 11:30 | 49.96016 | 28.63250 | 36962 ft | 440 kts | 68° |
| 2026-05-05 11:30 | 49.98219 | 28.72120 | 36958 ft | 440 kts | 68° |
| 2026-05-05 11:31 | 50.00426 | 28.81004 | 36956 ft | 441 kts | 68° |
| 2026-05-05 11:31 | 50.02621 | 28.89899 | 36951 ft | 441 kts | 68° |
| 2026-05-05 11:32 | 50.04811 | 28.98817 | 36957 ft | 441 kts | 68° |
| 2026-05-05 11:32 | 50.06969 | 29.07745 | 36809 ft | 437 kts | 69° |
| 2026-05-05 11:32 | 50.08011 | 29.12098 | 36553 ft | 433 kts | 69° |
| 2026-05-05 11:33 | 50.09062 | 29.16493 | 36290 ft | 433 kts | 69° |
| 2026-05-05 11:33 | 50.10113 | 29.20887 | 36026 ft | 433 kts | 69° |
| 2026-05-05 11:33 | 50.11164 | 29.25287 | 35773 ft | 432 kts | 69° |
| 2026-05-05 11:33 | 50.12212 | 29.29674 | 35523 ft | 432 kts | 69° |
| 2026-05-05 11:34 | 50.13262 | 29.34071 | 35269 ft | 432 kts | 69° |
| 2026-05-05 11:34 | 50.14307 | 29.38456 | 35022 ft | 432 kts | 69° |
| 2026-05-05 11:34 | 50.15350 | 29.42853 | 34465 ft | 433 kts | 69° |
| 2026-05-05 11:34 | 50.16398 | 29.47289 | 33614 ft | 437 kts | 69° |
| 2026-05-05 11:35 | 50.17451 | 29.51761 | 32706 ft | 441 kts | 69° |
| 2026-05-05 11:35 | 50.18497 | 29.56186 | 31818 ft | 443 kts | 68° |
| 2026-05-05 11:35 | 50.19791 | 29.60548 | 31251 ft | 438 kts | 63° |
| 2026-05-05 11:35 | 50.21113 | 29.64797 | 30692 ft | 433 kts | 64° |
| 2026-05-05 11:36 | 50.22410 | 29.69028 | 30091 ft | 431 kts | 64° |
| 2026-05-05 11:36 | 50.23690 | 29.73243 | 29432 ft | 428 kts | 64° |
| 2026-05-05 11:36 | 50.24950 | 29.77404 | 28829 ft | 423 kts | 64° |
| 2026-05-05 11:36 | 50.26208 | 29.81560 | 28197 ft | 422 kts | 64° |
| 2026-05-05 11:37 | 50.27470 | 29.85723 | 27565 ft | 424 kts | 64° |
| 2026-05-05 11:37 | 50.28726 | 29.89861 | 26925 ft | 420 kts | 64° |
| 2026-05-05 11:37 | 50.29978 | 29.93983 | 26303 ft | 418 kts | 64° |
| 2026-05-05 11:37 | 50.31221 | 29.98078 | 25671 ft | 416 kts | 64° |
| 2026-05-05 11:38 | 50.32459 | 30.02153 | 25051 ft | 414 kts | 64° |
| 2026-05-05 11:38 | 50.33691 | 30.06214 | 24439 ft | 412 kts | 64° |
| 2026-05-05 11:38 | 50.34912 | 30.10262 | 23819 ft | 411 kts | 64° |
| 2026-05-05 11:38 | 50.36132 | 30.14313 | 23155 ft | 411 kts | 64° |
| 2026-05-05 11:39 | 50.37344 | 30.18356 | 22528 ft | 408 kts | 64° |
| 2026-05-05 11:39 | 50.38544 | 30.22373 | 21932 ft | 405 kts | 64° |
| 2026-05-05 11:39 | 50.39734 | 30.26357 | 21340 ft | 403 kts | 64° |
| 2026-05-05 11:39 | 50.40521 | 30.28988 | 20963 ft | 401 kts | 64° |
| 2026-05-05 11:40 | 50.41134 | 30.31139 | 20662 ft | 399 kts | 66° |
| 2026-05-05 11:40 | 50.42260 | 30.35104 | 20100 ft | 398 kts | 64° |
| 2026-05-05 11:40 | 50.43450 | 30.38993 | 19555 ft | 396 kts | 63° |
| 2026-05-05 11:40 | 50.44675 | 30.42858 | 19024 ft | 394 kts | 62° |
| 2026-05-05 11:41 | 50.45898 | 30.46702 | 18493 ft | 392 kts | 62° |
| 2026-05-05 11:41 | 50.47100 | 30.50521 | 17938 ft | 390 kts | 63° |
| 2026-05-05 11:41 | 50.48281 | 30.54340 | 17394 ft | 387 kts | 63° |
| 2026-05-05 11:41 | 50.49437 | 30.58133 | 16858 ft | 382 kts | 63° |
| 2026-05-05 11:42 | 50.50561 | 30.61859 | 16631 ft | 370 kts | 63° |
| 2026-05-05 11:42 | 50.51635 | 30.65450 | 16494 ft | 356 kts | 63° |
| 2026-05-05 11:42 | 50.52669 | 30.68907 | 16368 ft | 343 kts | 63° |
| 2026-05-05 11:42 | 50.53670 | 30.72233 | 16254 ft | 330 kts | 62° |
| 2026-05-05 11:43 | 50.54940 | 30.75115 | 16119 ft | 315 kts | 42° |
| 2026-05-05 11:43 | 50.56699 | 30.77022 | 15995 ft | 302 kts | 22° |
| 2026-05-05 11:43 | 50.58686 | 30.77838 | 15865 ft | 291 kts | 4° |
| 2026-05-05 11:43 | 50.60651 | 30.77995 | 15730 ft | 281 kts | 2° |
| 2026-05-05 11:44 | 50.62570 | 30.78136 | 15334 ft | 274 kts | 2° |
| 2026-05-05 11:44 | 50.64473 | 30.78278 | 14705 ft | 276 kts | 2° |
| 2026-05-05 11:44 | 50.66425 | 30.78424 | 13897 ft | 285 kts | 2° |
| 2026-05-05 11:44 | 50.68384 | 30.78569 | 13540 ft | 275 kts | 2° |
| 2026-05-05 11:45 | 50.70250 | 30.78708 | 13216 ft | 263 kts | 2° |
| 2026-05-05 11:45 | 50.72069 | 30.78845 | 12709 ft | 261 kts | 2° |
| 2026-05-05 11:45 | 50.73876 | 30.78982 | 12159 ft | 259 kts | 2° |
| 2026-05-05 11:45 | 50.75663 | 30.79299 | 11611 ft | 258 kts | 17° |
| 2026-05-05 11:46 | 50.77228 | 30.80619 | 11090 ft | 257 kts | 42° |
| 2026-05-05 11:46 | 50.78289 | 30.82861 | 10584 ft | 256 kts | 67° |
| 2026-05-05 11:46 | 50.78640 | 30.85602 | 10051 ft | 256 kts | 93° |
| 2026-05-05 11:46 | 50.78218 | 30.88304 | 9504 ft | 254 kts | 119° |
| 2026-05-05 11:47 | 50.77123 | 30.90450 | 8955 ft | 252 kts | 144° |
| 2026-05-05 11:47 | 50.75589 | 30.91723 | 8428 ft | 249 kts | 165° |
| 2026-05-05 11:47 | 50.73900 | 30.92205 | 7928 ft | 246 kts | 181° |
| 2026-05-05 11:47 | 50.72208 | 30.92103 | 7444 ft | 242 kts | 185° |
| 2026-05-05 11:48 | 50.68884 | 30.91855 | 6503 ft | 238 kts | 184° |
| 2026-05-05 11:48 | 50.67235 | 30.91734 | 6021 ft | 236 kts | 185° |
| 2026-05-05 11:48 | 50.65601 | 30.91613 | 5548 ft | 234 kts | 184° |
| 2026-05-05 11:49 | 50.63982 | 30.91492 | 5084 ft | 232 kts | 184° |
| 2026-05-05 11:49 | 50.62394 | 30.91373 | 4624 ft | 231 kts | 184° |
| 2026-05-05 11:49 | 50.60794 | 30.91382 | 4148 ft | 230 kts | 177° |
| 2026-05-05 11:49 | 50.59191 | 30.91570 | 3882 ft | 228 kts | 178° |
| 2026-05-05 11:50 | 50.57638 | 30.91739 | 3753 ft | 219 kts | 178° |
| 2026-05-05 11:50 | 50.56134 | 30.91967 | 3621 ft | 217 kts | 178° |
| 2026-05-05 11:50 | 50.54658 | 30.91998 | 3490 ft | 208 kts | 184° |
| 2026-05-05 11:50 | 50.53236 | 30.91915 | 3376 ft | 200 kts | 184° |
| 2026-05-05 11:51 | 50.51870 | 30.91815 | 3309 ft | 193 kts | 184° |
| 2026-05-05 11:51 | 50.50545 | 30.91718 | 3150 ft | 189 kts | 184° |
| 2026-05-05 11:51 | 50.49273 | 30.91626 | 2937 ft | 177 kts | 185° |
| 2026-05-05 11:51 | 50.48065 | 30.91536 | 2731 ft | 169 kts | 184° |
| 2026-05-05 11:52 | 50.46960 | 30.91454 | 2524 ft | 150 kts | 184° |
| 2026-05-05 11:52 | 50.45958 | 30.91380 | 2344 ft | 141 kts | 186° |
| 2026-05-05 11:52 | 50.44966 | 30.91306 | 2141 ft | 142 kts | 186° |
| 2026-05-05 11:52 | 50.43981 | 30.91234 | 1961 ft | 142 kts | 183° |
| 2026-05-05 11:53 | 50.42964 | 30.91158 | 1808 ft | 150 kts | 184° |
| 2026-05-05 11:53 | 50.41967 | 30.91096 | 1630 ft | 148 kts | 185° |
| 2026-05-05 11:53 | 50.40950 | 30.91051 | 1462 ft | 158 kts | 184° |
| 2026-05-05 11:53 | 50.39922 | 30.90933 | 1183 ft | 141 kts | 187° |
| 2026-05-05 11:54 | 50.38973 | 30.90853 | 954 ft | 131 kts | 185° |
| 2026-05-05 11:54 | 50.38047 | 30.90796 | 824 ft | 135 kts | 184° |
| 2026-05-05 11:54 | 50.37111 | 30.90726 | 661 ft | 133 kts | 184° |
| 2026-05-05 11:54 | 50.36181 | 30.90661 | 499 ft | 134 kts | 185° |
| 2026-05-05 11:55 | 50.35280 | 30.90584 | 419 ft | 117 kts | 181° |
| 2026-05-05 11:55 | 50.34639 | 30.90535 | 414 ft | 62 kts | 183° |
| 2026-05-05 11:55 | 50.34259 | 30.90479 | 421 ft | 39 kts | 198° |
| 2026-05-05 11:55 | 50.34106 | 30.90354 | 414 ft | 21 kts | 214° |
| 2026-05-05 11:56 | 50.34063 | 30.90311 | 411 ft | 0 kts | 212° |
| 2026-05-05 11:57 | 50.34057 | 30.90306 | 410 ft | 3 kts | 212° |
| 2026-05-05 11:57 | 50.34033 | 30.90271 | 407 ft | 7 kts | 237° |
| 2026-05-05 11:57 | 50.34047 | 30.90193 | 414 ft | 9 kts | 315° |
| 2026-05-05 11:58 | 50.34089 | 30.90178 | 413 ft | 10 kts | 3° |
| 2026-05-05 11:58 | 50.34170 | 30.90185 | 414 ft | 13 kts | 3° |
| 2026-05-05 11:58 | 50.34266 | 30.90192 | 407 ft | 15 kts | 2° |
| 2026-05-05 11:58 | 50.34376 | 30.90201 | 406 ft | 17 kts | 3° |
| 2026-05-05 11:59 | 50.34502 | 30.90210 | 409 ft | 19 kts | 2° |
| 2026-05-05 11:59 | 50.34617 | 30.90218 | 413 ft | 17 kts | 3° |
| 2026-05-05 11:59 | 50.34744 | 30.90228 | 412 ft | 19 kts | 2° |
| 2026-05-05 11:59 | 50.34884 | 30.90238 | 407 ft | 21 kts | 3° |
| 2026-05-05 12:00 | 50.35038 | 30.90250 | 416 ft | 20 kts | 2° |
| 2026-05-05 12:00 | 50.35142 | 30.90254 | 410 ft | 12 kts | 353° |
| 2026-05-05 12:00 | 50.35194 | 30.90156 | 415 ft | 13 kts | 274° |
| 2026-05-05 12:00 | 50.35186 | 30.90023 | 415 ft | 10 kts | 265° |
| 2026-05-05 12:01 | 50.35187 | 30.89910 | 415 ft | 7 kts | 272° |
| 2026-05-05 12:01 | 50.35188 | 30.89886 | 414 ft | 0 kts | 272° |